Latest Weather Observations for Williamson

IDQ60801

Issued at 4:05 pm EST Tuesday 29 July 2014 (issued every 30 minutes, with the page automatically refreshed every 10 minutes)

About weather observations | Map of weather stations | Latest weather observations for QLD | Other Formats
Station Details ID: 033195 Name: WILLIAMSON Lat: -22.47 Lon: 150.18 Height: 27.6 m
Data from the previous 72 hours. | See also: Recent months at Williamson
Date/Time
EST
Temp
°C
App
Temp
°C
Dew
Point
Rel
Hum
%
Delta-T
°C
Wind Press
QNH
hPa
Press
MSL
hPa
Rain
since 9 am
mm
Dir
 
Spd
km/h
Gust
km/h
Spd
kts
Gust
kts
29/04:00pm 22.8 20.7 11.2 48 6.4 NE 13 24 7 13 1019.7 - 0.0
29/03:30pm 23.3 21.2 11.0 46 6.8 NE 13 20 7 11 1019.8 - 0.0
29/03:00pm 23.4 21.8 11.5 47 6.7 NNE 11 24 6 13 1019.7 1019.7 0.0
29/02:30pm 23.4 20.9 11.1 46 6.9 NE 15 24 8 13 1019.9 - 0.0
29/02:00pm 24.0 21.9 11.3 45 7.1 NE 13 24 7 13 1020.1 - 0.0
29/01:30pm 24.3 22.0 11.9 45 7.0 NE 15 20 8 11 1020.5 - 0.0
29/01:00pm 24.2 22.1 11.2 44 7.3 E 13 22 7 12 1020.9 - 0.0
29/12:30pm 24.0 21.4 10.7 43 7.4 NE 15 20 8 11 1021.3 - 0.0
29/12:00pm 24.3 22.2 11.3 44 7.3 NE 13 24 7 13 1021.9 1021.9 0.0
29/11:30am 23.3 22.0 11.4 47 6.7 ENE 9 20 5 11 1022.4 - 0.0
29/11:00am 22.6 20.8 10.7 47 6.6 ESE 11 20 6 11 1022.9 - 0.0
29/10:30am 22.4 20.6 10.9 48 6.4 ENE 11 22 6 12 1023.3 - 0.0
29/10:00am 22.4 21.4 10.9 48 6.4 E 7 13 4 7 1023.6 - 0.0
29/09:30am 21.8 21.3 12.1 54 5.5 NNE 6 13 3 7 1023.8 - 0.0
29/09:00am 19.1 20.3 13.7 71 3.1 CALM 0 0 0 0 1024.0 1024.0 0.0
29/08:30am 16.3 16.6 13.4 83 1.6 S 4 6 2 3 1024.0 - 0.0
29/08:00am 13.7 13.7 12.3 91 0.8 SSE 4 7 2 4 1023.9 - 0.0
29/07:30am 9.8 9.7 9.5 98 0.1 CALM 0 0 0 0 1023.7 - 0.0
29/07:00am 7.9 7.3 7.6 98 0.1 CALM 0 0 0 0 1023.4 - 0.0
29/06:30am 7.7 7.1 7.4 98 0.1 CALM 0 0 0 0 1023.0 - 0.0
29/06:00am 7.6 7.0 7.3 98 0.1 SSE 0 0 0 0 1022.7 1022.7 0.0
29/05:30am 7.6 7.0 7.3 98 0.1 CALM 0 0 0 0 1022.4 - 0.0
29/05:00am 7.9 7.3 7.6 98 0.1 CALM 0 0 0 0 1022.1 - 0.0
29/04:30am 8.1 7.6 7.7 97 0.2 CALM 0 0 0 0 1021.8 - 0.0
29/04:00am 8.3 7.8 7.9 97 0.2 CALM 0 0 0 0 1021.5 - 0.0
29/03:30am 8.7 8.3 8.4 98 0.1 CALM 0 0 0 0 1021.3 - 0.0
29/03:00am 8.9 8.6 8.5 97 0.2 CALM 0 0 0 0 1021.3 1021.3 0.0
29/02:30am 9.1 8.8 8.6 97 0.2 CALM 0 0 0 0 1021.3 - 0.0
29/02:00am 9.4 9.2 8.9 97 0.2 CALM 0 0 0 0 1021.4 - 0.0
29/01:30am 9.8 9.7 9.3 97 0.2 CALM 0 0 0 0 1021.5 - 0.0
29/01:00am 10.1 10.0 9.6 97 0.3 CALM 0 0 0 0 1021.9 - 0.0
29/12:30am 10.1 10.0 9.5 96 0.3 CALM 0 0 0 0 1022.1 - 0.0
29/12:00am 10.8 10.9 10.3 97 0.3 SSE 0 0 0 0 1022.2 1022.2 0.0
 
Date/Time
EST
Temp
°C
App
Temp
°C
Dew
Point
Rel
Hum
%
Delta-T
°C
Wind Press
QNH
hPa
Press
MSL
hPa
Rain
since 9 am
mm
Dir
 
Spd
km/h
Gust
km/h
Spd
kts
Gust
kts
28/11:30pm 11.3 11.5 10.7 96 0.3 CALM 0 0 0 0 1022.1 - 0.0
28/11:00pm 11.6 12.0 11.1 97 0.3 CALM 0 0 0 0 1022.2 - 0.0
28/10:30pm 11.8 12.1 11.0 95 0.4 CALM 0 0 0 0 1022.2 - 0.0
28/10:00pm 12.2 12.7 11.6 96 0.3 CALM 0 0 0 0 1022.2 - 0.0
28/09:30pm 12.4 12.9 11.6 95 0.4 CALM 0 0 0 0 1022.1 - 0.0
28/09:00pm 13.1 13.9 12.5 96 0.3 CALM 0 0 0 0 1022.0 1022.0 0.0
28/08:30pm 13.2 13.8 11.9 92 0.7 CALM 0 0 0 0 1021.8 - 0.0
28/08:00pm 14.0 14.8 12.6 91 0.8 CALM 0 0 0 0 1021.7 - 0.0
28/07:30pm 14.6 15.3 12.3 86 1.3 CALM 0 0 0 0 1021.6 - 0.0
28/07:00pm 15.4 15.5 12.7 84 1.5 NE 4 7 2 4 1021.3 - 0.0
28/06:30pm 17.0 17.2 12.9 77 2.3 NNE 4 7 2 4 1021.0 - 0.0
28/06:00pm 18.9 18.6 13.3 70 3.2 ENE 7 11 4 6 1020.7 1020.7 0.0
28/05:30pm 20.3 20.1 13.5 65 3.9 ENE 7 13 4 7 1020.4 - 0.0
28/05:00pm 21.5 21.1 14.2 63 4.3 NE 9 17 5 9 1020.1 - 0.0
28/04:30pm 22.1 20.4 13.7 59 4.9 NE 15 20 8 11 1019.8 - 0.0
28/04:00pm 22.7 21.4 13.7 56 5.2 NE 13 20 7 11 1019.7 - 0.0
28/03:30pm 23.4 22.7 14.4 57 5.3 NE 11 24 6 13 1019.6 - 0.0
28/03:00pm 23.6 22.2 14.6 57 5.3 ENE 15 28 8 15 1019.6 1019.6 0.0
28/02:30pm 23.1 22.7 14.1 57 5.3 NE 9 19 5 10 1019.8 - 0.0
28/02:00pm 23.4 22.5 13.8 54 5.6 NNE 11 17 6 9 1020.1 - 0.0
28/01:30pm 25.0 24.0 13.5 48 6.7 NNE 11 19 6 10 1020.4 - 0.0
28/01:00pm 23.6 22.5 10.6 44 7.2 WSW 7 11 4 6 1020.9 - 0.0
28/12:30pm 24.7 23.7 10.9 42 7.7 E 7 13 4 7 1021.4 - 0.0
28/12:00pm 23.8 22.2 11.5 46 6.9 ENE 11 19 6 10 1022.1 1022.1 0.0
28/11:30am 21.7 22.6 13.9 61 4.5 E 2 7 1 4 1022.9 - 0.0
28/11:00am 22.1 23.4 14.0 60 4.7 CALM 0 6 0 3 1023.3 - 0.0
28/10:30am 21.3 21.5 14.2 64 4.1 SSW 6 9 3 5 1023.8 - 0.0
28/10:00am 21.3 21.5 14.7 66 3.9 WNW 7 11 4 6 1024.1 - 0.0
28/09:30am 19.8 20.0 14.6 72 3.0 SW 7 11 4 6 1024.1 - 0.0
28/09:00am 17.8 18.2 13.7 77 2.3 S 4 7 2 4 1024.1 1024.1 0.0
28/08:30am 15.6 16.4 13.6 88 1.1 S 2 6 1 3 1023.9 - 0.0
28/08:00am 13.1 12.6 12.5 96 0.3 S 7 9 4 5 1023.6 - 0.0
28/07:30am 9.8 9.7 9.5 98 0.1 CALM 0 0 0 0 1023.5 - 0.0
28/07:00am 7.7 7.1 7.4 98 0.1 CALM 0 0 0 0 1023.1 - 0.0
28/06:30am 7.8 7.2 7.5 98 0.1 CALM 0 0 0 0 1022.7 - 0.0
28/06:00am 7.8 7.2 7.5 98 0.1 CALM 0 0 0 0 1022.4 1022.4 0.0
28/05:30am 7.7 7.1 7.4 98 0.1 CALM 0 0 0 0 1022.1 - 0.0
28/05:00am 7.9 7.3 7.6 98 0.1 CALM 0 0 0 0 1021.7 - 0.0
28/04:30am 8.2 7.7 7.9 98 0.1 CALM 0 6 0 3 1021.6 - 0.0
28/04:00am 7.9 7.3 7.6 98 0.1 CALM 0 0 0 0 1021.6 - 0.0
28/03:30am 8.1 7.6 7.8 98 0.1 CALM 0 0 0 0 1021.7 - 0.0
28/03:00am 8.3 7.8 8.0 98 0.1 CALM 0 0 0 0 1021.8 1021.8 0.0
28/02:30am 8.5 8.1 8.2 98 0.1 CALM 0 0 0 0 1022.0 - 0.0
28/02:00am 9.0 8.7 8.5 97 0.2 CALM 0 0 0 0 1022.0 - 0.0
28/01:30am 9.3 8.3 8.8 97 0.2 S 4 7 2 4 1022.3 - 0.0
28/01:00am 9.5 9.3 9.0 97 0.2 CALM 0 0 0 0 1022.7 - 0.0
28/12:30am 10.0 9.9 9.4 96 0.3 CALM 0 0 0 0 1022.9 - 0.0
28/12:00am 10.4 10.4 9.9 97 0.3 CALM 0 0 0 0 1023.2 1023.2 0.0
 
Date/Time
EST
Temp
°C
App
Temp
°C
Dew
Point
Rel
Hum
%
Delta-T
°C
Wind Press
QNH
hPa
Press
MSL
hPa
Rain
since 9 am
mm
Dir
 
Spd
km/h
Gust
km/h
Spd
kts
Gust
kts
27/11:30pm 10.8 10.9 10.2 96 0.3 CALM 0 0 0 0 1023.4 - 0.0
27/11:00pm 11.4 11.7 10.9 97 0.3 CALM 0 0 0 0 1023.5 - 0.0
27/10:30pm 11.8 12.2 11.2 96 0.3 CALM 0 0 0 0 1023.4 - 0.0
27/10:00pm 12.3 12.7 11.4 94 0.5 CALM 0 6 0 3 1023.2 - 0.0
27/09:30pm 13.0 13.7 12.1 94 0.5 CALM 0 0 0 0 1023.0 - 0.0
27/09:00pm 13.7 14.5 12.6 93 0.6 CALM 0 0 0 0 1022.9 1022.9 0.0
27/08:30pm 14.6 15.7 13.5 93 0.6 CALM 0 0 0 0 1022.6 - 0.0
27/08:00pm 15.3 16.3 13.3 88 1.1 CALM 0 0 0 0 1022.2 - 0.0
27/07:30pm 16.5 17.8 14.2 86 1.3 CALM 0 0 0 0 1021.9 - 0.0
27/07:00pm 18.2 18.5 14.5 79 2.1 NNE 6 11 3 6 1021.5 - 0.0
27/06:30pm 19.0 19.7 15.5 80 2.1 NE 6 9 3 5 1021.0 - 0.0
27/06:00pm 19.8 20.7 16.1 79 2.2 NE 6 9 3 5 1020.8 1020.8 0.0
27/05:30pm 20.9 21.3 15.4 71 3.3 NNE 7 13 4 7 1020.6 - 0.0
27/05:00pm 22.2 21.5 14.3 61 4.6 NNE 11 15 6 8 1020.3 - 0.0
27/04:30pm 23.8 23.8 14.2 55 5.7 N 7 11 4 6 1020.2 - 0.0
27/04:00pm 24.3 24.5 14.7 55 5.7 N 7 15 4 8 1020.2 - 0.0
27/03:30pm 24.6 23.8 14.1 52 6.2 NE 11 19 6 10 1020.2 - 0.0
27/03:00pm 24.9 25.0 14.4 52 6.2 N 7 11 4 6 1020.3 1020.3 0.0
27/02:30pm 24.6 24.5 15.0 55 5.8 N 9 15 5 8 1020.5 - 0.0
27/02:00pm 25.1 25.1 15.1 53 6.0 N 9 19 5 10 1020.6 - 0.0
27/01:30pm 23.9 23.4 12.8 49 6.4 S 7 11 4 6 1021.1 - 0.0
27/01:00pm 25.3 24.6 14.4 50 6.5 S 11 17 6 9 1021.6 - 0.0
27/12:30pm 24.7 22.6 13.6 50 6.5 SSW 17 24 9 13 1022.2 - 0.0
27/12:00pm 22.9 21.7 15.0 61 4.7 SSW 15 20 8 11 1022.7 1022.7 0.0
27/11:30am 23.2 23.0 15.8 63 4.5 SSW 11 19 6 10 1023.2 - 0.0
27/11:00am 22.2 21.8 16.2 69 3.6 SW 13 19 7 10 1023.7 - 0.0
27/10:30am 21.1 22.1 16.9 77 2.6 S 7 15 4 8 1024.0 - 0.0
27/10:00am 19.0 20.1 17.1 89 1.2 S 7 11 4 6 1024.4 - 0.0
27/09:30am 17.2 17.5 16.9 98 0.2 S 11 15 6 8 1024.6 - 0.0
27/09:00am 16.4 16.3 16.1 98 0.2 S 11 15 6 8 1024.6 1024.6 0.0
27/08:30am 15.6 15.6 15.3 98 0.2 SSW 9 11 5 6 1024.2 - 0.0
27/08:00am 14.9 14.7 14.6 98 0.2 SSW 9 13 5 7 1023.9 - 0.0
27/07:30am 14.0 14.0 13.7 98 0.2 S 6 7 3 4 1023.6 - 0.0
27/07:00am 13.6 13.5 13.3 98 0.2 SSE 6 7 3 4 1023.5 - 0.0
27/06:30am 12.9 13.3 12.6 98 0.2 SE 2 6 1 3 1023.4 - 0.0
27/06:00am 12.6 12.0 12.3 98 0.2 SSW 7 11 4 6 1023.0 1023.0 0.0
27/05:30am 11.9 12.0 11.6 98 0.2 ENE 2 6 1 3 1022.8 - 0.0
27/05:00am 12.1 12.7 11.8 98 0.2 CALM 0 0 0 0 1022.8 - 0.0
27/04:30am 12.9 12.6 12.6 98 0.2 S 6 9 3 5 1022.5 - 0.0
27/04:00am 12.9 13.7 12.6 98 0.2 CALM 0 0 0 0 1022.6 - 0.0
27/03:30am 13.6 14.6 13.3 98 0.2 CALM 0 0 0 0 1022.6 - 0.0
27/03:00am 13.4 14.3 12.9 97 0.3 CALM 0 0 0 0 1022.6 1022.6 0.0
27/02:30am 13.6 14.6 13.1 97 0.3 CALM 0 0 0 0 1022.7 - 0.0
27/02:00am 14.4 15.6 13.8 96 0.3 CALM 0 0 0 0 1023.1 - 0.0
27/01:30am 14.9 16.3 14.3 96 0.3 CALM 0 0 0 0 1023.5 - 0.0
27/01:00am 15.9 17.7 15.4 97 0.3 CALM 0 0 0 0 1023.7 - 0.0
27/12:30am 16.3 18.2 15.8 97 0.3 CALM 0 0 0 0 1024.0 - 0.0
27/12:00am 16.6 18.7 16.3 98 0.2 CALM 0 0 0 0 1024.1 1024.1 0.0
 
Date/Time
EST
Temp
°C
App
Temp
°C
Dew
Point
Rel
Hum
%
Delta-T
°C
Wind Press
QNH
hPa
Press
MSL
hPa
Rain
since 9 am
mm
Dir
 
Spd
km/h
Gust
km/h
Spd
kts
Gust
kts
26/11:30pm 16.8 18.9 16.2 96 0.4 CALM 0 0 0 0 1024.5 - 0.0
26/11:00pm 17.1 19.3 16.5 96 0.4 CALM 0 0 0 0 1024.6 - 0.0
26/10:30pm 17.7 20.0 16.7 94 0.6 CALM 0 0 0 0 1024.9 - 0.0
26/10:00pm 18.1 19.3 16.9 93 0.7 ESE 6 7 3 4 1025.0 - 0.0
26/09:30pm 18.4 19.7 17.2 93 0.7 S 6 9 3 5 1025.2 - 0.0
26/09:00pm 18.1 19.3 16.9 93 0.7 S 6 7 3 4 1025.1 1025.1 0.0
26/08:30pm 18.3 19.5 16.8 91 0.9 SSE 6 9 3 5 1024.9 - 0.0
26/08:00pm 18.8 20.1 17.1 90 1.0 SSE 6 7 3 4 1024.8 - 0.0
26/07:30pm 19.0 20.8 17.3 90 1.0 SSE 4 7 2 4 1024.5 - 0.0
26/07:00pm 18.6 19.7 17.1 91 0.9 SSW 7 9 4 5 1024.5 - 0.0
26/06:30pm 18.7 19.8 16.7 88 1.2 S 6 7 3 4 1024.3 - 0.0
26/06:00pm 19.3 21.0 17.1 87 1.3 S 4 7 2 4 1024.0 1024.0 0.0
26/05:30pm 19.4 20.5 17.0 86 1.5 S 7 11 4 6 1023.7 - 0.0
26/05:00pm 19.9 21.9 16.9 83 1.8 SE 2 7 1 4 1023.5 - 0.0
26/04:30pm 20.2 21.5 17.0 82 1.9 S 6 9 3 5 1023.3 - 0.0

Other Formats:

Comma delimited format used in spreadsheet applications
http://www.bom.gov.au/fwo/IDQ60801/IDQ60801.95370.axf

JavaScript Object Notation format (JSON) in row-major order
http://www.bom.gov.au/fwo/IDQ60801/IDQ60801.95370.json